Time;durP1;ratioP1;P1;durP2;ratioP2;P2;SDS_P1;SDS_P2;PMS_P1;PMS_P2;Temp;Humidity;BMP_temperature;BMP_pressure;BME280_temperature;BME280_humidity;BME280_pressure;Samples;Min_cycle;Max_cycle;Signal;HPM_P1;HPM_P2
2023/12/06 00:00:17;;;;;;;;;;;4.60;99.90;;;3.89;100.00;97089.22;5018994;28;1853;-69
2023/12/06 00:02:45;;;;;;;;;;;4.60;99.90;;;3.87;100.00;97090.97;5019476;28;1726;-72
2023/12/06 00:05:12;;;;;;;;;;;4.60;99.90;;;3.86;100.00;97086.72;5018264;28;1934;-69
2023/12/06 00:07:39;;;;;;;;;;;4.60;99.90;;;3.80;100.00;97092.00;5019315;28;1730;-71
2023/12/06 00:10:06;;;;;;;;;;;4.60;99.90;;;3.96;100.00;97098.44;5019840;28;1666;-71
2023/12/06 00:12:33;;;;;;;;;;;4.60;99.90;;;3.88;100.00;97082.41;5016347;28;1714;-71
2023/12/06 00:15:00;;;;;;;;;;;4.60;99.90;;;3.85;100.00;97085.03;5002520;28;1714;-71
2023/12/06 00:17:27;;;;;;;;;;;4.70;99.90;;;3.83;100.00;97079.94;5005971;28;1706;-71
2023/12/06 00:19:54;;;;;;;;;;;4.70;99.90;;;3.84;100.00;97088.50;5021157;28;1698;-71
2023/12/06 00:22:21;;;;;;;;;;;4.70;99.90;;;3.91;100.00;97090.88;5021311;28;1680;-71
2023/12/06 00:24:53;;;;;;;;;;;4.60;99.90;;;3.85;100.00;97085.88;5022329;28;1934;-70
2023/12/06 00:27:21;;;;;;;;;;;4.60;99.90;;;3.92;100.00;97078.84;5019197;28;1654;-71
2023/12/06 00:29:48;;;;;;;;;;;4.70;99.90;;;3.91;100.00;97087.47;5016644;28;1568;-71
2023/12/06 00:32:15;;;;;;;;;;;4.70;99.90;;;3.80;100.00;97081.72;5015302;28;1699;-70
2023/12/06 00:34:42;;;;;;;;;;;4.70;99.90;;;3.96;100.00;97089.03;5005079;28;1774;-70
2023/12/06 00:37:09;;;;;;;;;;;4.70;99.90;;;3.89;100.00;97090.06;5008867;28;1612;-70
2023/12/06 00:39:36;;;;;;;;;;;4.60;99.90;;;3.90;100.00;97091.75;5018111;28;1702;-71
2023/12/06 00:42:03;;;;;;;;;;;4.70;99.90;;;3.95;100.00;97100.19;5014917;28;1558;-70
2023/12/06 00:44:30;;;;;;;;;;;4.60;99.90;;;3.96;100.00;97103.59;5009715;28;1902;-70
2023/12/06 00:46:57;;;;;;;;;;;4.70;99.90;;;3.94;100.00;97095.91;5006018;28;1615;-71
2023/12/06 00:49:23;;;;;;;;;;;4.70;99.90;;;3.99;100.00;97095.81;5019938;28;1630;-71
2023/12/06 00:51:50;;;;;;;;;;;4.70;99.90;;;3.94;100.00;97098.47;5004726;28;1696;-71
2023/12/06 00:54:17;;;;;;;;;;;4.70;99.90;;;3.98;100.00;97097.53;5019927;28;1849;-71
2023/12/06 00:56:44;;;;;;;;;;;4.70;99.90;;;4.00;100.00;97110.34;5018181;28;1422;-70
2023/12/06 00:59:11;;;;;;;;;;;4.70;99.90;;;3.94;100.00;97106.19;4997943;28;2181;-70
2023/12/06 01:01:38;;;;;;;;;;;4.80;99.90;;;3.96;100.00;97107.00;5022356;28;1821;-71
2023/12/06 01:04:05;;;;;;;;;;;4.80;99.90;;;3.90;100.00;97106.28;5018101;28;1902;-70
2023/12/06 01:06:32;;;;;;;;;;;4.80;99.90;;;4.07;100.00;97106.75;5016332;28;1689;-69
2023/12/06 01:08:59;;;;;;;;;;;4.80;99.90;;;4.07;100.00;97101.59;5003458;28;1631;-70
2023/12/06 01:11:25;;;;;;;;;;;4.80;99.90;;;4.08;100.00;97110.16;5015904;28;1677;-70
2023/12/06 01:13:52;;;;;;;;;;;4.80;99.90;;;4.03;100.00;97117.13;5018181;28;1484;-70
2023/12/06 01:16:20;;;;;;;;;;;4.70;99.90;;;3.93;100.00;97107.06;5015602;28;1543;-69
2023/12/06 01:18:47;;;;;;;;;;;4.70;99.90;;;3.91;100.00;97113.13;5002685;28;1293;-70
2023/12/06 01:21:14;;;;;;;;;;;4.80;99.90;;;3.85;100.00;97113.25;5003635;28;1391;-71
2023/12/06 01:23:40;;;;;;;;;;;4.80;99.90;;;4.05;100.00;97129.06;5016691;28;1608;-69
2023/12/06 01:26:07;;;;;;;;;;;4.80;99.90;;;4.17;100.00;97122.78;5018098;28;1906;-70
2023/12/06 01:28:38;;;;;;;;;;;4.80;99.90;;;4.08;100.00;97129.00;5020494;28;1382;-69
2023/12/06 01:31:05;;;;;;;;;;;4.80;99.90;;;4.16;100.00;97129.63;5003726;28;1409;-70
2023/12/06 01:33:31;;;;;;;;;;;4.80;99.90;;;4.14;100.00;97128.00;5016588;28;1400;-69
2023/12/06 01:35:59;;;;;;;;;;;4.80;99.90;;;4.09;100.00;97128.09;5001028;28;1553;-70
2023/12/06 01:38:26;;;;;;;;;;;4.80;99.90;;;4.16;100.00;97136.50;5015927;28;1582;-70
2023/12/06 01:40:53;;;;;;;;;;;4.80;99.90;;;4.03;100.00;97135.94;4999432;28;1415;-70
2023/12/06 01:43:20;;;;;;;;;;;4.80;99.90;;;4.00;100.00;97140.31;5016515;28;1567;-71
2023/12/06 01:45:47;;;;;;;;;;;4.80;99.90;;;4.05;100.00;97135.91;5016723;28;1914;-70
2023/12/06 01:48:14;;;;;;;;;;;4.80;99.90;;;4.02;100.00;97141.97;5001046;28;1424;-70
2023/12/06 01:50:43;;;;;;;;;;;4.80;99.90;;;4.15;100.00;97143.38;4999894;28;1514;-70
2023/12/06 01:53:09;;;;;;;;;;;4.80;99.90;;;4.03;100.00;97147.94;5002268;28;1513;-70
2023/12/06 01:55:36;;;;;;;;;;;4.80;99.90;;;4.03;100.00;97146.22;5018802;28;1869;-70
2023/12/06 01:58:03;;;;;;;;;;;4.80;99.90;;;4.12;100.00;97148.56;5016120;28;1450;-70
2023/12/06 02:00:30;;;;;;;;;;;4.70;99.90;;;4.13;100.00;97146.88;5003579;28;1440;-70
2023/12/06 02:02:57;;;;;;;;;;;4.80;99.90;;;4.06;100.00;97147.88;4998674;28;1442;-70
2023/12/06 02:05:24;;;;;;;;;;;4.80;99.90;;;4.04;100.00;97153.06;5018318;28;1902;-70
2023/12/06 02:07:51;;;;;;;;;;;4.90;99.90;;;4.01;100.00;97147.13;5017140;28;1611;-69
2023/12/06 02:10:19;;;;;;;;;;;4.80;99.90;;;4.10;100.00;97157.19;5005897;28;1419;-69
2023/12/06 02:12:46;;;;;;;;;;;4.90;99.90;;;4.02;100.00;97147.09;5016383;28;1391;-69
2023/12/06 02:15:13;;;;;;;;;;;4.80;99.90;;;4.14;100.00;97158.81;5018563;28;1518;-69
2023/12/06 02:17:40;;;;;;;;;;;4.80;99.90;;;4.13;100.00;97154.56;5019797;28;1516;-69
2023/12/06 02:20:09;;;;;;;;;;;4.80;99.90;;;4.17;100.00;97154.47;5006815;28;1595;-69
2023/12/06 02:22:36;;;;;;;;;;;4.80;99.90;;;4.15;100.00;97158.78;5004433;28;1515;-69
2023/12/06 02:25:09;;;;;;;;;;;4.90;99.90;;;4.09;100.00;97158.09;5018854;28;1898;-69
2023/12/06 02:27:39;;;;;;;;;;;4.90;99.90;;;4.00;100.00;97145.47;5021809;28;1467;-69
2023/12/06 02:30:08;;;;;;;;;;;4.80;99.90;;;4.06;100.00;97150.44;5024212;28;1439;-69
2023/12/06 02:32:36;;;;;;;;;;;4.90;99.90;;;4.14;100.00;97161.38;5022401;28;1477;-69
2023/12/06 02:35:16;;;;;;;;;;;4.90;99.90;;;4.04;100.00;97159.88;5025198;28;1203;-69
2023/12/06 02:37:44;;;;;;;;;;;4.90;99.90;;;4.08;100.00;97158.94;5016184;28;1423;-69
2023/12/06 02:40:12;;;;;;;;;;;4.90;99.90;;;4.02;100.00;97169.38;4996435;28;1618;-69
2023/12/06 02:42:39;;;;;;;;;;;4.80;99.90;;;4.21;100.00;97165.50;5005640;28;1401;-69
2023/12/06 02:45:06;;;;;;;;;;;4.90;99.90;;;4.11;100.00;97167.44;5020890;28;1895;-69
2023/12/06 02:47:33;;;;;;;;;;;4.80;99.90;;;4.09;100.00;97160.66;5021954;28;1454;-69
2023/12/06 02:50:00;;;;;;;;;;;4.80;99.90;;;4.04;100.00;97176.16;5022517;28;1482;-69
2023/12/06 02:52:27;;;;;;;;;;;4.80;99.90;;;4.06;100.00;97179.56;5006139;28;1501;-69
2023/12/06 02:54:54;;;;;;;;;;;4.80;99.90;;;4.13;100.00;97177.69;5013921;28;1745;-69
2023/12/06 02:57:21;;;;;;;;;;;4.80;99.90;;;4.10;100.00;97175.16;5019785;28;1426;-69
2023/12/06 02:59:49;;;;;;;;;;;4.80;99.90;;;3.96;100.00;97178.91;5021129;28;1431;-69
2023/12/06 03:02:16;;;;;;;;;;;4.80;99.90;;;4.07;100.00;97177.81;5007253;28;1396;-69
2023/12/06 03:04:43;;;;;;;;;;;4.80;99.90;;;4.02;100.00;97179.66;5019534;28;1898;-69
2023/12/06 03:07:10;;;;;;;;;;;4.70;99.90;;;3.98;100.00;97178.88;5019658;28;1376;-69
2023/12/06 03:09:37;;;;;;;;;;;4.80;99.90;;;4.08;100.00;97167.53;5024335;28;1731;-69
2023/12/06 03:12:06;;;;;;;;;;;4.80;99.90;;;4.01;100.00;97178.78;5022543;28;1604;-69
2023/12/06 03:14:33;;;;;;;;;;;4.70;99.90;;;4.10;100.00;97177.75;5005638;28;1467;-69
2023/12/06 03:17:00;;;;;;;;;;;4.80;99.90;;;4.01;100.00;97183.94;5018033;28;1296;-69
2023/12/06 03:19:27;;;;;;;;;;;4.70;99.90;;;3.97;100.00;97174.63;5020540;28;1391;-69
2023/12/06 03:21:54;;;;;;;;;;;4.80;99.90;;;3.97;100.00;97175.47;5025254;28;1402;-69
2023/12/06 03:24:21;;;;;;;;;;;4.70;99.90;;;3.99;100.00;97175.41;5003296;28;1456;-69
2023/12/06 03:26:47;;;;;;;;;;;4.80;99.90;;;3.94;100.00;97172.09;5022499;28;2010;-69
2023/12/06 03:29:14;;;;;;;;;;;4.80;99.90;;;3.96;100.00;97181.47;5017889;28;1380;-68
2023/12/06 03:31:42;;;;;;;;;;;4.80;99.90;;;3.97;100.00;97184.91;5021296;28;1461;-69
2023/12/06 03:34:09;;;;;;;;;;;4.80;99.90;;;3.98;100.00;97189.13;5019504;28;1842;-71
2023/12/06 03:36:39;;;;;;;;;;;4.70;99.90;;;4.05;100.00;97190.69;5020436;28;1474;-70
2023/12/06 03:39:06;;;;;;;;;;;4.80;99.90;;;4.01;100.00;97194.19;5009652;28;1380;-71
2023/12/06 03:41:33;;;;;;;;;;;4.80;99.90;;;4.04;100.00;97196.72;5022111;28;1244;-70
2023/12/06 03:44:00;;;;;;;;;;;4.70;99.90;;;4.01;100.00;97194.19;5007123;28;1464;-71
2023/12/06 03:46:29;;;;;;;;;;;4.70;99.90;;;4.10;100.00;97203.41;5019932;28;1988;-68
2023/12/06 03:48:56;;;;;;;;;;;4.70;99.90;;;4.01;100.00;97206.19;5021262;28;1371;-71
2023/12/06 03:51:23;;;;;;;;;;;4.70;99.90;;;3.98;100.00;97213.09;5022017;28;1395;-72
2023/12/06 03:53:50;;;;;;;;;;;4.70;99.90;;;3.94;100.00;97208.06;5023235;28;1849;-69
2023/12/06 03:56:17;;;;;;;;;;;4.60;99.90;;;3.96;100.00;97206.31;5021484;28;1466;-71
2023/12/06 03:58:44;;;;;;;;;;;4.70;99.90;;;3.96;100.00;97207.13;5020563;28;1363;-71
2023/12/06 04:01:12;;;;;;;;;;;4.60;99.90;;;3.90;100.00;97202.16;5020570;28;1441;-70
2023/12/06 04:03:42;;;;;;;;;;;4.70;99.90;;;3.88;100.00;97208.22;5016516;28;1462;-71
2023/12/06 04:06:10;;;;;;;;;;;4.60;99.90;;;3.77;100.00;97208.44;5020042;28;2013;-70
2023/12/06 04:08:39;;;;;;;;;;;4.60;99.90;;;3.85;100.00;97201.41;5016761;28;1438;-71
2023/12/06 04:11:06;;;;;;;;;;;4.50;99.90;;;3.71;100.00;97201.69;5015613;28;1462;-70
2023/12/06 04:13:33;;;;;;;;;;;4.50;99.90;;;3.80;100.00;97202.38;5019594;28;1527;-71
2023/12/06 04:16:00;;;;;;;;;;;4.40;99.90;;;3.56;100.00;97202.03;5017336;28;1465;-71
2023/12/06 04:18:27;;;;;;;;;;;4.40;99.90;;;3.55;100.00;97201.16;5020917;28;1528;-71
2023/12/06 04:20:54;;;;;;;;;;;4.40;99.90;;;3.46;100.00;97221.88;5008908;28;1441;-70
2023/12/06 04:23:21;;;;;;;;;;;4.30;99.90;;;3.51;100.00;97222.66;5021144;28;1446;-70
2023/12/06 04:25:48;;;;;;;;;;;4.30;99.90;;;3.56;100.00;97220.84;5009481;28;1927;-71
2023/12/06 04:28:15;;;;;;;;;;;4.30;99.90;;;3.44;100.00;97215.94;5019316;28;1461;-70
2023/12/06 04:30:41;;;;;;;;;;;4.30;99.90;;;3.56;100.00;97233.69;5017698;28;1802;-71
2023/12/06 04:33:08;;;;;;;;;;;4.10;99.90;;;3.41;100.00;97231.41;5003206;28;1549;-70
2023/12/06 04:35:35;;;;;;;;;;;4.20;99.90;;;3.43;100.00;97231.38;5019463;28;1443;-71
2023/12/06 04:38:02;;;;;;;;;;;4.20;99.90;;;3.51;100.00;97232.06;5020462;28;1405;-71
2023/12/06 04:40:29;;;;;;;;;;;4.20;99.90;;;3.32;100.00;97241.84;5003655;28;1596;-70
2023/12/06 04:42:56;;;;;;;;;;;4.20;99.90;;;3.50;100.00;97238.91;5010005;28;1572;-71
2023/12/06 04:45:23;;;;;;;;;;;4.20;99.90;;;3.42;100.00;97235.69;5018440;28;1918;-71
2023/12/06 04:47:50;;;;;;;;;;;4.20;99.90;;;3.41;100.00;97251.09;5019266;28;1535;-70
2023/12/06 04:50:17;;;;;;;;;;;4.10;99.90;;;3.25;100.00;97255.66;4998055;28;1466;-70
2023/12/06 04:52:44;;;;;;;;;;;4.00;99.90;;;3.31;100.00;97258.97;5021965;28;1543;-71
2023/12/06 04:55:11;;;;;;;;;;;4.10;99.90;;;3.47;100.00;97258.69;5019169;28;1500;-71
2023/12/06 04:57:38;;;;;;;;;;;4.10;99.90;;;3.27;100.00;97265.03;5019587;28;1460;-70
2023/12/06 05:00:08;;;;;;;;;;;4.00;99.90;;;3.01;100.00;97257.81;5017851;28;1500;-70
2023/12/06 05:02:35;;;;;;;;;;;4.00;99.90;;;3.13;100.00;97264.44;5002180;28;1587;-71
2023/12/06 05:05:04;;;;;;;;;;;3.90;99.90;;;3.12;100.00;97270.41;5015353;28;1983;-70
2023/12/06 05:07:31;;;;;;;;;;;3.90;99.90;;;3.12;100.00;97262.72;5020010;28;1516;-71
2023/12/06 05:09:58;;;;;;;;;;;4.00;99.90;;;3.00;100.00;97275.78;5019597;28;1553;-70
2023/12/06 05:12:25;;;;;;;;;;;3.90;99.90;;;2.78;100.00;97286.38;5020248;28;1791;-70
2023/12/06 05:14:52;;;;;;;;;;;3.80;99.90;;;3.06;100.00;97279.09;5019671;28;1563;-71
2023/12/06 05:17:18;;;;;;;;;;;3.80;99.90;;;2.73;100.00;97283.03;4988001;28;1513;-71
2023/12/06 05:19:46;;;;;;;;;;;3.80;99.90;;;2.93;100.00;97285.28;5019618;28;1453;-71
2023/12/06 05:22:13;;;;;;;;;;;3.80;99.90;;;2.96;100.00;97292.91;5004205;28;1541;-71
2023/12/06 05:24:41;;;;;;;;;;;3.70;99.90;;;2.75;100.00;97293.28;5000939;28;1811;-71
2023/12/06 05:27:09;;;;;;;;;;;3.70;99.90;;;2.75;100.00;97293.28;5018058;28;1918;-70
2023/12/06 05:29:36;;;;;;;;;;;3.70;99.90;;;2.76;100.00;97289.84;5004214;28;1569;-70
2023/12/06 05:32:03;;;;;;;;;;;3.60;99.90;;;2.73;100.00;97291.56;5006079;28;1604;-69
2023/12/06 05:34:31;;;;;;;;;;;3.60;99.90;;;2.81;100.00;97300.88;5002942;28;1559;-69
2023/12/06 05:36:57;;;;;;;;;;;3.50;99.90;;;2.61;100.00;97303.75;5019981;28;1557;-70
2023/12/06 05:39:25;;;;;;;;;;;3.50;99.90;;;2.64;100.00;97306.25;5002301;28;1661;-69
2023/12/06 05:41:53;;;;;;;;;;;3.50;99.90;;;2.74;100.00;97302.69;5004922;28;1426;-70
2023/12/06 05:44:20;;;;;;;;;;;3.60;99.90;;;2.81;100.00;97303.44;5000489;28;1431;-69
2023/12/06 05:46:46;;;;;;;;;;;3.50;99.90;;;2.82;100.00;97303.41;5015182;28;1914;-69
2023/12/06 05:49:14;;;;;;;;;;;3.60;99.90;;;2.66;100.00;97307.91;5015330;28;1446;-69
2023/12/06 05:51:41;;;;;;;;;;;3.60;99.90;;;2.78;100.00;97303.47;5002545;28;1465;-70
2023/12/06 05:54:08;;;;;;;;;;;3.60;99.90;;;2.65;100.00;97301.13;5017996;28;1590;-71
2023/12/06 05:56:35;;;;;;;;;;;3.60;99.90;;;2.67;100.00;97303.66;5015811;28;1641;-70
2023/12/06 05:59:02;;;;;;;;;;;3.60;99.90;;;2.76;100.00;97303.53;5017447;28;1584;-70
2023/12/06 06:01:28;;;;;;;;;;;3.60;99.90;;;2.78;100.00;97312.00;5016228;28;1480;-70
2023/12/06 06:03:56;;;;;;;;;;;3.60;99.90;;;2.71;100.00;97315.53;5006745;28;1407;-71
2023/12/06 06:06:24;;;;;;;;;;;3.60;99.90;;;2.65;100.00;97311.38;5000469;28;1914;-71
2023/12/06 06:08:51;;;;;;;;;;;3.60;99.90;;;2.59;100.00;97319.13;5017035;28;1434;-69
2023/12/06 06:11:18;;;;;;;;;;;3.60;99.90;;;2.49;100.00;97320.16;5015775;28;1581;-69
2023/12/06 06:13:44;;;;;;;;;;;3.40;99.90;;;2.47;100.00;97332.97;5014134;28;1852;-69
2023/12/06 06:16:15;;;;;;;;;;;3.40;99.90;;;2.45;100.00;97337.28;5020487;28;1051;-69
2023/12/06 06:18:42;;;;;;;;;;;3.40;99.90;;;2.47;100.00;97337.28;4993404;28;1153;-69
2023/12/06 06:21:09;;;;;;;;;;;3.40;99.90;;;2.49;100.00;97336.38;5005720;28;1245;-69
2023/12/06 06:23:36;;;;;;;;;;;3.50;99.90;;;2.50;100.00;97350.03;5021099;28;1280;-69
2023/12/06 06:26:03;;;;;;;;;;;3.50;99.90;;;2.58;100.00;97340.53;5002957;28;1910;-69
2023/12/06 06:28:30;;;;;;;;;;;3.50;99.90;;;2.61;100.00;97345.59;5001452;28;1230;-69
2023/12/06 06:31:00;;;;;;;;;;;3.60;99.90;;;2.53;100.00;97347.41;5020811;28;1143;-69
2023/12/06 06:33:27;;;;;;;;;;;3.60;99.90;;;2.59;100.00;97349.03;5021006;28;1399;-69
2023/12/06 06:35:54;;;;;;;;;;;3.60;99.90;;;2.45;100.00;97362.06;5025560;28;1102;-69
2023/12/06 06:38:21;;;;;;;;;;;3.50;99.90;;;2.43;100.00;97356.09;5021190;28;1082;-69
2023/12/06 06:40:48;;;;;;;;;;;3.50;99.90;;;2.46;100.00;97367.16;5004794;28;1060;-69
2023/12/06 06:43:15;;;;;;;;;;;3.40;99.90;;;2.56;100.00;97367.88;5021555;28;1332;-69
2023/12/06 06:45:43;;;;;;;;;;;3.40;99.90;;;2.54;100.00;97371.34;5015846;28;1911;-69
2023/12/06 06:48:10;;;;;;;;;;;3.40;99.90;;;2.58;100.00;97367.84;5021817;28;1524;-69
2023/12/06 06:50:37;;;;;;;;;;;3.40;99.90;;;2.55;100.00;97375.56;5020179;28;1201;-69
2023/12/06 06:53:04;;;;;;;;;;;3.40;99.90;;;2.40;100.00;97384.34;5020304;28;1301;-69
2023/12/06 06:55:31;;;;;;;;;;;3.40;99.90;;;2.35;100.00;97386.97;5000469;28;1111;-70
2023/12/06 06:58:00;;;;;;;;;;;3.30;99.90;;;2.25;100.00;97393.03;5015450;28;1195;-69
2023/12/06 07:00:27;;;;;;;;;;;3.30;99.90;;;2.31;100.00;97405.78;5020611;28;1118;-69
2023/12/06 07:02:59;;;;;;;;;;;3.30;99.90;;;2.28;100.00;97395.56;5017645;28;1454;-69
2023/12/06 07:05:26;;;;;;;;;;;3.30;99.90;;;2.28;100.00;97413.47;5021049;28;1914;-69
2023/12/06 07:07:53;;;;;;;;;;;3.30;99.90;;;2.34;100.00;97415.97;5020475;28;1496;-69
2023/12/06 07:10:23;;;;;;;;;;;3.20;99.90;;;2.47;100.00;97414.97;5021269;28;1987;-69
2023/12/06 07:12:50;;;;;;;;;;;3.30;99.90;;;2.48;100.00;97415.81;5021922;28;1272;-69
2023/12/06 07:15:17;;;;;;;;;;;3.30;99.90;;;2.49;100.00;97428.59;5022848;28;1078;-69
2023/12/06 07:17:45;;;;;;;;;;;3.20;99.90;;;2.40;100.00;97425.31;5021299;28;1208;-69
2023/12/06 07:20:12;;;;;;;;;;;3.30;99.90;;;2.40;100.00;97441.53;5026275;28;1074;-69
2023/12/06 07:22:40;;;;;;;;;;;3.20;99.90;;;2.46;100.00;97436.34;5012059;28;1254;-70
2023/12/06 07:25:07;;;;;;;;;;;3.20;99.90;;;2.34;100.00;97440.75;5027409;28;1185;-69
2023/12/06 07:27:34;;;;;;;;;;;3.30;99.90;;;2.48;100.00;97438.84;5007446;28;1910;-69
2023/12/06 07:30:01;;;;;;;;;;;3.30;99.90;;;2.30;100.00;97451.03;4991979;28;1184;-69
2023/12/06 07:32:28;;;;;;;;;;;3.30;99.90;;;2.48;100.00;97456.78;5006707;28;1304;-70
2023/12/06 07:35:01;;;;;;;;;;;3.30;99.90;;;2.44;100.00;97453.44;5023807;28;1097;-69
2023/12/06 07:37:29;;;;;;;;;;;3.30;99.90;;;2.51;100.00;97464.47;5025004;28;1148;-69
2023/12/06 07:39:55;;;;;;;;;;;3.30;99.90;;;2.36;100.00;97469.75;5021717;28;1078;-69
2023/12/06 07:42:22;;;;;;;;;;;3.30;99.90;;;2.35;100.00;97465.47;5026898;28;2030;-69
2023/12/06 07:44:49;;;;;;;;;;;3.30;99.90;;;2.56;100.00;97469.53;5006975;28;1041;-69
2023/12/06 07:47:16;;;;;;;;;;;3.30;99.90;;;2.50;100.00;97473.84;5021609;28;1906;-69
2023/12/06 07:49:43;;;;;;;;;;;3.30;99.90;;;2.41;100.00;97475.66;5025567;28;1243;-69
2023/12/06 07:52:10;;;;;;;;;;;3.30;99.90;;;2.56;100.00;97480.63;5020943;28;1297;-69
2023/12/06 07:54:37;;;;;;;;;;;3.20;99.90;;;2.50;100.00;97475.56;5020141;28;1086;-69
2023/12/06 07:57:05;;;;;;;;;;;3.30;99.90;;;2.42;100.00;97487.63;5020881;28;1180;-70
2023/12/06 07:59:32;;;;;;;;;;;3.30;99.90;;;2.34;100.00;97484.28;5021777;28;1222;-69
2023/12/06 08:01:58;;;;;;;;;;;3.30;99.90;;;2.43;100.00;97492.72;5021151;28;1387;-68
2023/12/06 08:04:25;;;;;;;;;;;3.30;99.90;;;2.47;100.00;97488.41;5022316;28;1985;-69
2023/12/06 08:06:52;;;;;;;;;;;3.30;99.90;;;2.57;100.00;97491.72;5018674;28;2004;-69
2023/12/06 08:09:20;;;;;;;;;;;3.30;99.90;;;2.42;100.00;97483.34;5020632;28;1075;-69
2023/12/06 08:11:47;;;;;;;;;;;3.30;99.90;;;2.47;100.00;97496.94;5023061;28;1697;-69
2023/12/06 08:14:14;;;;;;;;;;;3.20;99.90;;;2.44;100.00;97491.88;5022351;28;1436;-69
2023/12/06 08:16:41;;;;;;;;;;;3.30;99.90;;;2.29;100.00;97497.16;5025299;28;1208;-69
2023/12/06 08:19:08;;;;;;;;;;;3.30;99.90;;;2.33;100.00;97497.94;5007862;28;1364;-69
2023/12/06 08:21:36;;;;;;;;;;;3.30;99.90;;;2.33;100.00;97503.06;5025107;28;2296;-69
2023/12/06 08:24:05;;;;;;;;;;;3.30;99.90;;;2.53;100.00;97513.94;5004085;28;1411;-69
2023/12/06 08:26:33;;;;;;;;;;;3.20;99.90;;;2.49;100.00;97507.19;5024671;28;2007;-69
2023/12/06 08:29:00;;;;;;;;;;;3.20;99.90;;;2.61;100.00;97512.16;4993261;28;1676;-69
2023/12/06 08:31:28;;;;;;;;;;;3.20;99.90;;;2.53;100.00;97508.81;5023561;28;1098;-69
2023/12/06 08:33:55;;;;;;;;;;;3.30;99.90;;;2.65;100.00;97512.97;5022113;28;1324;-69
2023/12/06 08:36:22;;;;;;;;;;;3.40;99.90;;;2.55;100.00;97512.22;5025322;28;1033;-69
2023/12/06 08:38:50;;;;;;;;;;;3.30;99.90;;;2.41;100.00;97504.69;5020326;28;1369;-69
2023/12/06 08:41:17;;;;;;;;;;;3.40;99.90;;;2.57;100.00;97510.47;5006198;28;1137;-69
2023/12/06 08:43:44;;;;;;;;;;;3.40;99.90;;;2.57;100.00;97515.59;5024504;28;1383;-69
2023/12/06 08:46:11;;;;;;;;;;;3.40;99.90;;;2.58;100.00;97517.31;5007446;28;1915;-69
2023/12/06 08:48:38;;;;;;;;;;;3.30;99.90;;;2.53;100.00;97516.50;5026456;28;1079;-69
2023/12/06 08:51:05;;;;;;;;;;;3.30;99.90;;;2.51;100.00;97524.22;5009455;28;1062;-69
2023/12/06 08:53:32;;;;;;;;;;;3.40;99.90;;;2.58;100.00;97532.69;5009558;28;1269;-69
2023/12/06 08:55:59;;;;;;;;;;;3.40;99.90;;;2.58;100.00;97536.94;5023388;28;1070;-69
2023/12/06 08:58:27;;;;;;;;;;;3.40;99.90;;;2.57;100.00;97530.13;5025333;28;1133;-69
2023/12/06 09:00:54;;;;;;;;;;;3.40;99.90;;;2.62;100.00;97529.25;5023297;28;1739;-69
2023/12/06 09:03:21;;;;;;;;;;;3.40;99.90;;;2.63;100.00;97538.59;5022187;28;1383;-69
2023/12/06 09:05:48;;;;;;;;;;;3.40;99.90;;;2.55;100.00;97542.13;5022363;28;1087;-69
2023/12/06 09:08:15;;;;;;;;;;;3.50;99.90;;;2.85;100.00;97546.91;5022046;28;1902;-69
2023/12/06 09:10:42;;;;;;;;;;;3.50;99.90;;;2.81;100.00;97545.22;5022548;28;1113;-69
2023/12/06 09:13:09;;;;;;;;;;;3.50;99.90;;;3.01;100.00;97551.81;5002558;28;1399;-69
2023/12/06 09:15:36;;;;;;;;;;;3.60;99.90;;;2.85;100.00;97549.47;5006696;28;1186;-69
2023/12/06 09:18:03;;;;;;;;;;;3.50;99.90;;;2.88;100.00;97543.44;5020976;28;1134;-69
2023/12/06 09:20:30;;;;;;;;;;;3.60;99.90;;;3.08;100.00;97553.41;5021754;28;1455;-69
2023/12/06 09:22:56;;;;;;;;;;;3.80;99.90;;;3.17;100.00;97557.59;5021186;28;1388;-69
2023/12/06 09:25:23;;;;;;;;;;;3.90;99.90;;;3.41;100.00;97557.25;5022660;28;1089;-69
2023/12/06 09:27:51;;;;;;;;;;;4.00;99.90;;;3.30;100.00;97564.25;5020294;28;1935;-69
2023/12/06 09:30:19;;;;;;;;;;;4.20;99.90;;;3.45;100.00;97569.19;5021620;28;1452;-69
2023/12/06 09:32:46;;;;;;;;;;;4.20;99.90;;;3.43;100.00;97572.63;5024785;28;1390;-69
2023/12/06 09:35:13;;;;;;;;;;;4.20;99.90;;;3.27;100.00;97577.13;5022861;28;1113;-69
2023/12/06 09:37:42;;;;;;;;;;;4.10;99.90;;;3.45;100.00;97576.88;5004170;28;1142;-69
2023/12/06 09:40:10;;;;;;;;;;;4.10;99.90;;;3.37;100.00;97580.41;5022432;28;1110;-69
2023/12/06 09:42:37;;;;;;;;;;;4.00;99.90;;;3.23;100.00;97584.00;5003515;28;1293;-69
2023/12/06 09:45:05;;;;;;;;;;;4.00;99.90;;;3.21;100.00;97579.78;5005413;28;1125;-69
2023/12/06 09:47:32;;;;;;;;;;;4.00;99.90;;;3.10;100.00;97587.59;5021311;28;1910;-69
2023/12/06 09:49:59;;;;;;;;;;;4.00;99.90;;;3.17;100.00;97586.66;5022793;28;1159;-69
2023/12/06 09:52:26;;;;;;;;;;;4.00;99.90;;;3.45;100.00;97586.28;5005924;28;1437;-69
2023/12/06 09:54:53;;;;;;;;;;;4.10;99.90;;;3.39;100.00;97589.78;5007428;28;1074;-69
2023/12/06 09:57:22;;;;;;;;;;;4.20;99.90;;;3.44;100.00;97584.59;5005861;28;1277;-69
2023/12/06 09:59:50;;;;;;;;;;;4.20;99.90;;;3.55;100.00;97595.53;4988612;28;1059;-69
2023/12/06 10:02:17;;;;;;;;;;;4.20;99.90;;;3.53;100.00;97599.84;5021492;28;1440;-69
2023/12/06 10:04:47;;;;;;;;;;;4.30;99.90;;;3.37;100.00;97590.66;5020285;28;1488;-69
2023/12/06 10:07:15;;;;;;;;;;;4.30;99.90;;;3.33;100.00;97597.56;5020510;28;1938;-69
2023/12/06 10:09:50;;;;;;;;;;;4.20;99.90;;;3.64;100.00;97597.97;5019580;28;1695;-70
2023/12/06 10:12:17;;;;;;;;;;;4.30;99.90;;;3.94;100.00;97598.38;5021001;28;1375;-69
2023/12/06 10:14:45;;;;;;;;;;;4.50;99.90;;;4.00;100.00;97600.84;5020681;28;1098;-69
2023/12/06 10:17:13;;;;;;;;;;;4.60;99.90;;;3.96;100.00;97599.22;5003877;28;1400;-69
2023/12/06 10:19:41;;;;;;;;;;;4.60;99.90;;;4.13;100.00;97597.22;5017708;28;1367;-69
2023/12/06 10:22:09;;;;;;;;;;;4.70;99.90;;;4.26;100.00;97595.28;5002827;28;1476;-69
2023/12/06 10:24:41;;;;;;;;;;;4.90;99.90;;;4.00;100.00;97595.72;4999517;28;1553;-69
2023/12/06 10:27:11;;;;;;;;;;;4.80;99.90;;;3.86;100.00;97598.50;5023788;28;1984;-69
2023/12/06 10:29:39;;;;;;;;;;;4.70;99.90;;;4.02;100.00;97593.16;5006815;28;1239;-69
2023/12/06 10:32:08;;;;;;;;;;;4.70;99.90;;;3.85;100.00;97598.53;5021150;28;1443;-69
2023/12/06 10:34:35;;;;;;;;;;;4.60;99.90;;;3.73;100.00;97595.28;5021690;28;1134;-69
2023/12/06 10:37:03;;;;;;;;;;;4.60;99.90;;;3.74;100.00;97602.13;5004784;28;1135;-70
2023/12/06 10:39:32;;;;;;;;;;;4.50;99.90;;;3.81;100.00;97591.75;5005124;28;1150;-69
2023/12/06 10:42:01;;;;;;;;;;;4.50;99.90;;;3.98;100.00;97593.16;5028352;28;1340;-69
2023/12/06 10:44:28;;;;;;;;;;;4.50;99.90;;;3.82;100.00;97596.84;5007190;28;1123;-69
2023/12/06 10:46:55;;;;;;;;;;;4.60;99.90;;;3.88;100.00;97607.03;5028104;28;1906;-69
2023/12/06 10:49:36;;;;;;;;;;;4.40;99.90;;;4.00;100.00;97597.44;5022880;28;1612;-69
2023/12/06 10:52:06;;;;;;;;;;;4.40;99.90;;;3.85;100.00;97603.66;5011404;28;1407;-68
2023/12/06 10:54:33;;;;;;;;;;;4.40;99.90;;;3.87;100.00;97601.91;4996854;28;1288;-69
2023/12/06 10:57:03;;;;;;;;;;;4.40;99.90;;;3.72;100.00;97606.44;4996193;28;1324;-68
2023/12/06 10:59:33;;;;;;;;;;;4.30;99.90;;;3.62;100.00;97617.69;5007799;28;1604;-69
2023/12/06 11:02:01;;;;;;;;;;;4.30;99.90;;;3.68;100.00;97611.63;5025496;28;1327;-69
2023/12/06 11:04:34;;;;;;;;;;;4.30;99.90;;;3.55;100.00;97609.22;5023861;28;1346;-69
2023/12/06 11:07:09;;;;;;;;;;;4.20;99.90;;;3.48;100.00;97620.44;4991729;28;1990;-69
2023/12/06 11:09:48;;;;;;;;;;;4.30;99.90;;;3.38;100.00;97605.22;5020416;28;1266;-69
2023/12/06 11:12:30;;;;;;;;;;;4.30;99.90;;;3.63;100.00;97609.13;5025457;28;1272;-69
2023/12/06 11:15:10;;;;;;;;;;;4.40;99.90;;;3.69;100.00;97613.31;5008364;28;1452;-69
2023/12/06 11:18:18;;;;;;;;;;;4.30;99.90;;;3.74;100.00;97614.97;5026750;28;1569;-69
2023/12/06 11:20:45;;;;;;;;;;;4.40;99.90;;;3.92;100.00;97613.84;5002173;28;1301;-69
2023/12/06 11:23:15;;;;;;;;;;;4.60;99.90;;;4.23;100.00;97610.75;4990025;28;1490;-69
2023/12/06 11:25:43;;;;;;;;;;;4.70;99.90;;;4.22;100.00;97606.50;5026612;28;1087;-69
2023/12/06 11:28:14;;;;;;;;;;;4.90;99.90;;;4.15;100.00;97600.63;5020814;28;1901;-69
2023/12/06 11:30:48;;;;;;;;;;;4.80;99.90;;;4.02;100.00;97596.56;5025548;28;1130;-69
2023/12/06 11:33:16;;;;;;;;;;;4.80;99.90;;;4.08;100.00;97596.47;5004253;28;1385;-69
2023/12/06 11:35:56;;;;;;;;;;;4.80;99.90;;;4.20;100.00;97597.97;5028220;28;1360;-69